»·PEaware :: N808MA KLAX-KSAN

N808MA :: KLAX-KSAN

FLIGHT INFORMATION

Flight Status: Arrived
Operator: Privately registered:
United States
More flights under this callsign
Pilot: Kyle A. (14988)
Aircraft: CESSNA 208 CARAVAN
(C208)
More flights by this aircraft type
Origin: KLAX Los Angeles Intl
United States
Destination: KSAN San Diego Intl-Lindbergh
United States
More flights between these airports :: More routes between these airports
Route: +
File this flight plan on PilotEdge
Remarks:
Altitude:
(Current/Filed)
5,500ft
Speed:
(Current/Filed)
0kts
Departed: 20-Nov-17 02:06 PM
Arrived: 20-Nov-17 02:53 PM
Distance/Time
Traveled:
95nm/0:47
Distance/Time
To Go:
Arrived

Flight Plot

Page will automatically refresh every two minutes.


Map Options




Map Legend


Flown Route
Filed Route
Departure Airport
Arrival Airport
Navaid (VOR, NDB)
Fix

Horizontal Profiles

Position Reports

Time Latitude Longitude Heading Altitude Ground
Speed
20-Nov-17 14:02 33.933335 -118.399870 78 108ft 0kts
20-Nov-17 14:03 33.933335 -118.399870 78 108ft 0kts
20-Nov-17 14:04 33.933335 -118.399870 78 108ft 0kts
20-Nov-17 14:05 33.933335 -118.399870 78 108ft 0kts
20-Nov-17 14:06 33.933670 -118.399164 71 108ft 13kts
20-Nov-17 14:07 33.934914 -118.394634 85 108ft 19kts
20-Nov-17 14:08 33.935611 -118.387910 84 108ft 12kts
20-Nov-17 14:09 33.936178 -118.382973 48 108ft 13kts
20-Nov-17 14:10 33.936448 -118.382765 4 108ft 0kts
20-Nov-17 14:11 33.935967 -118.394394 261 321ft 102kts
20-Nov-17 14:12 33.932025 -118.437156 266 1237ft 137kts
20-Nov-17 14:13 33.929564 -118.482837 266 2290ft 136kts
20-Nov-17 14:14 33.913986 -118.517592 178 2998ft 156kts
20-Nov-17 14:15 33.869684 -118.507926 172 3313ft 157kts
20-Nov-17 14:16 33.827257 -118.499725 176 3998ft 154kts
20-Nov-17 14:17 33.784713 -118.491736 176 4685ft 155kts
20-Nov-17 14:18 33.742080 -118.483038 176 5367ft 156kts
20-Nov-17 14:19 33.708907 -118.448642 135 6057ft 165kts
20-Nov-17 14:20 33.677919 -118.407533 135 6739ft 167kts
20-Nov-17 14:21 33.646688 -118.366211 135 7419ft 168kts
20-Nov-17 14:22 33.612949 -118.321822 134 7530ft 189kts
20-Nov-17 14:23 33.576590 -118.274029 135 7532ft 196kts
20-Nov-17 14:24 33.541038 -118.227363 137 7538ft 195kts
20-Nov-17 14:25 33.504777 -118.179880 137 7540ft 194kts
20-Nov-17 14:26 33.468167 -118.132058 138 7537ft 194kts
20-Nov-17 14:27 33.431515 -118.084285 138 7532ft 196kts
20-Nov-17 14:28 33.394540 -118.036214 138 7539ft 196kts
20-Nov-17 14:29 33.357475 -117.988109 137 7544ft 197kts
20-Nov-17 14:30 33.320241 -117.939857 137 7544ft 198kts
20-Nov-17 14:31 33.282862 -117.891490 137 7541ft 198kts
20-Nov-17 14:32 33.245402 -117.843069 137 7532ft 198kts
20-Nov-17 14:33 33.207903 -117.794667 137 7531ft 198kts
20-Nov-17 14:34 33.170800 -117.746852 137 7531ft 198kts
20-Nov-17 14:35 33.133362 -117.698682 137 7531ft 198kts
20-Nov-17 14:36 33.096915 -117.651847 137 7530ft 185kts
20-Nov-17 14:37 33.062305 -117.607459 136 7531ft 181kts
20-Nov-17 14:38 33.038926 -117.565217 73 7523ft 158kts
20-Nov-17 14:39 33.067269 -117.558950 298 7530ft 108kts
20-Nov-17 14:40 33.044997 -117.565241 118 7535ft 161kts
20-Nov-17 14:41 33.061647 -117.539108 328 7532ft 130kts
20-Nov-17 14:42 33.043785 -117.552492 123 7533ft 162kts
20-Nov-17 14:43 33.063840 -117.528381 303 7531ft 124kts
20-Nov-17 14:44 33.076571 -117.552144 353 7513ft 97kts
20-Nov-17 14:45 33.079952 -117.515998 110 6502ft 127kts
20-Nov-17 14:46 33.070890 -117.481518 110 5496ft 140kts
20-Nov-17 14:47 33.058803 -117.436282 110 4057ft 158kts
20-Nov-17 14:48 33.040866 -117.386873 134 3512ft 151kts
20-Nov-17 14:49 33.008612 -117.349514 150 3513ft 173kts
20-Nov-17 14:50 32.966840 -117.321831 156 3509ft 175kts
20-Nov-17 14:51 32.922948 -117.296235 156 3507ft 176kts
20-Nov-17 14:52 32.882943 -117.272915 156 3501ft 148kts
20-Nov-17 14:53 32.852909 -117.254558 156 3500ft 111kts
20-Nov-17 14:54 32.822201 -117.235219 156 2763ft 145kts
20-Nov-17 14:55 32.785521 -117.215846 158 1873ft 140kts
20-Nov-17 14:56 32.750859 -117.198867 154 1275ft 126kts
20-Nov-17 14:57 32.737312 -117.164776 158 813ft 91kts
20-Nov-17 14:58 32.732005 -117.183273 292 18ft 33kts
20-Nov-17 14:59 32.732761 -117.181624 105 19ft 19kts
20-Nov-17 15:00 32.732090 -117.177375 46 28ft 3kts
20-Nov-17 15:01 32.732109 -117.176770 197 29ft 0kts
20-Nov-17 15:02 32.732109 -117.176770 197 29ft 0kts
20-Nov-17 15:03 32.732109 -117.176770 197 29ft 0kts
20-Nov-17 15:04 32.732109 -117.176770 197 29ft 0kts
20-Nov-17 15:05 32.732109 -117.176770 197 29ft 0kts

Navigation Log

Ident Type
1. KLAX Airport
2. KSAN Airport